createdAt,value
2023-05-01T00:04:48.263Z,41.67
2023-05-01T00:07:07.059Z,42.68
2023-05-01T00:09:49.601Z,42.15
2023-05-01T00:12:44.622Z,42.62
2023-05-01T00:15:16.453Z,42.41
2023-05-01T00:17:51.870Z,42.98
2023-05-01T00:26:51.709Z,44.03
2023-05-01T00:30:19.444Z,44.40
2023-05-01T00:36:31.627Z,45.28
2023-05-01T00:46:54.416Z,45.50
2023-05-01T00:49:58.849Z,44.76
2023-05-01T00:57:01.044Z,45.57
2023-05-01T01:03:53.047Z,45.71
2023-05-01T01:10:56.436Z,46.03
2023-05-01T01:31:37.044Z,46.60
2023-05-01T01:35:11.039Z,46.81
2023-05-01T01:38:52.924Z,46.73
2023-05-01T01:41:52.343Z,46.48
2023-05-01T01:57:04.427Z,48.03
2023-05-01T02:03:56.497Z,47.86
2023-05-01T02:10:55.742Z,48.97
2023-05-01T02:13:52.966Z,48.57
2023-05-01T02:16:55.120Z,48.63
2023-05-01T02:19:57.354Z,48.35
2023-05-01T02:23:00.925Z,48.56
2023-05-01T02:36:55.656Z,48.18
2023-05-01T02:39:59.059Z,48.59
2023-05-01T02:46:55.710Z,48.07
2023-05-01T02:50:00.330Z,48.01
2023-05-01T02:55:57.325Z,48.21
2023-05-01T03:03:02.028Z,48.11
2023-05-01T03:13:29.687Z,48.65
2023-05-01T03:17:00.758Z,48.51
2023-05-01T03:33:26.833Z,49.03
2023-05-01T03:39:30.424Z,49.19
2023-05-01T03:42:33.885Z,49.31
2023-05-01T03:45:44.732Z,49.03
2023-05-01T03:48:28.921Z,49.57
2023-05-01T03:50:58.098Z,49.43
2023-05-01T03:57:37.767Z,50.19
2023-05-01T04:16:38.412Z,50.99
2023-05-01T04:20:05.302Z,51.18
2023-05-01T04:25:39.444Z,51.70
2023-05-01T04:29:41.219Z,51.95
2023-05-01T04:31:39.187Z,51.59
2023-05-01T04:38:28.178Z,51.46
2023-05-01T04:49:35.204Z,50.92
2023-05-01T04:55:34.036Z,51.50
2023-05-01T05:13:05.129Z,51.52
2023-05-01T05:16:01.150Z,52.22
2023-05-01T05:22:03.303Z,52.07
2023-05-01T05:31:06.916Z,52.74
2023-05-01T05:33:40.540Z,52.57
2023-05-01T05:40:04.047Z,51.99
2023-05-01T05:44:46.194Z,52.16
2023-05-01T05:48:28.275Z,51.97
2023-05-01T05:51:06.111Z,52.45
2023-05-01T05:54:04.567Z,53.68
2023-05-01T06:01:00.019Z,53.50
2023-05-01T06:04:07.049Z,53.30
2023-05-01T06:06:38.350Z,53.64
2023-05-01T06:12:10.931Z,53.37
2023-05-01T06:15:29.790Z,53.40
2023-05-01T06:21:11.114Z,52.86
2023-05-01T06:23:59.607Z,52.16
2023-05-01T06:26:30.894Z,52.37
2023-05-01T06:29:08.624Z,52.75
2023-05-01T06:32:05.039Z,53.13
2023-05-01T06:35:04.500Z,53.27
2023-05-01T06:43:14.297Z,52.79
2023-05-01T06:46:59.717Z,52.16
2023-05-01T06:58:24.080Z,52.33
2023-05-01T07:01:10.476Z,51.83
2023-05-01T07:04:10.821Z,51.92
2023-05-01T07:06:49.805Z,51.91
2023-05-01T07:10:03.112Z,51.75
2023-05-01T07:12:31.708Z,51.84
2023-05-01T07:15:06.209Z,51.92
2023-05-01T07:18:04.015Z,51.43
2023-05-01T07:20:33.600Z,51.53
2023-05-01T07:23:02.265Z,51.99
2023-05-01T07:26:10.477Z,52.46
2023-05-01T07:28:32.479Z,52.15
2023-05-01T07:31:03.780Z,52.08
2023-05-01T07:34:06.239Z,52.00
2023-05-01T07:37:02.049Z,51.67
2023-05-01T07:40:04.855Z,52.00
2023-05-01T07:43:03.747Z,51.85
2023-05-01T07:45:32.449Z,51.79
2023-05-01T07:48:10.502Z,51.57
2023-05-01T07:51:08.191Z,51.66
2023-05-01T07:54:08.541Z,51.25
2023-05-01T07:56:36.860Z,52.03
2023-05-01T07:59:05.293Z,51.94
2023-05-01T08:02:01.007Z,52.35
2023-05-01T08:04:33.219Z,52.47
2023-05-01T08:07:04.963Z,52.69
2023-05-01T08:09:33.431Z,52.93
2023-05-01T08:12:04.781Z,52.46
2023-05-01T08:20:05.740Z,51.89
2023-05-01T08:26:01.940Z,51.76
2023-05-01T08:29:08.452Z,52.12
2023-05-01T08:32:04.670Z,51.50
2023-05-01T08:34:33.347Z,51.68
2023-05-01T08:37:04.548Z,51.70
2023-05-01T08:45:12.807Z,52.15
2023-05-01T08:53:34.516Z,52.42
2023-05-01T08:56:08.969Z,52.49
2023-05-01T09:01:35.657Z,52.40
2023-05-01T09:04:06.060Z,52.50
2023-05-01T09:06:34.860Z,52.32
2023-05-01T09:09:06.671Z,52.60
2023-05-01T09:15:06.032Z,52.27
2023-05-01T09:20:41.201Z,52.31
2023-05-01T09:23:09.591Z,52.21
2023-05-01T09:25:37.911Z,52.48
2023-05-01T09:28:09.509Z,52.19
2023-05-01T09:31:06.925Z,52.42
2023-05-01T09:33:35.285Z,52.19
2023-05-01T09:36:05.990Z,52.10
2023-05-01T09:39:07.469Z,52.47
2023-05-01T09:41:36.918Z,52.41
2023-05-01T09:44:08.738Z,52.41
2023-05-01T09:46:44.743Z,52.59
2023-05-01T09:49:13.859Z,53.02
2023-05-01T09:52:13.122Z,52.65
2023-05-01T09:54:45.370Z,52.80
2023-05-01T09:57:13.800Z,52.91
2023-05-01T10:00:16.467Z,53.07
2023-05-01T10:03:18.143Z,53.24
2023-05-01T10:06:05.246Z,53.01
2023-05-01T10:08:49.987Z,53.27
2023-05-01T10:11:18.414Z,53.94
2023-05-01T10:17:36.627Z,53.65
2023-05-01T10:20:05.441Z,53.40
2023-05-01T10:22:37.199Z,53.07
2023-05-01T10:25:09.018Z,52.87
2023-05-01T10:27:39.262Z,52.89
2023-05-01T10:30:15.233Z,52.93
2023-05-01T10:33:08.566Z,52.79
2023-05-01T10:35:40.451Z,52.79
2023-05-01T10:38:15.071Z,52.75
2023-05-01T10:41:03.279Z,53.04
2023-05-01T10:43:38.129Z,53.11
2023-05-01T10:46:12.305Z,53.24
2023-05-01T10:49:08.842Z,53.06
2023-05-01T10:52:05.543Z,53.42
2023-05-01T10:55:17.727Z,53.19
2023-05-01T10:58:08.290Z,53.54
2023-05-01T11:01:09.150Z,53.67
2023-05-01T11:06:07.813Z,53.84
2023-05-01T11:08:39.269Z,53.84
2023-05-01T11:11:35.896Z,53.57
2023-05-01T11:14:16.732Z,53.50
2023-05-01T11:17:36.825Z,53.16
2023-05-01T11:20:39.975Z,52.83
2023-05-01T11:23:10.868Z,52.85
2023-05-01T11:25:41.670Z,53.31
2023-05-01T11:28:11.404Z,53.43
2023-05-01T11:36:50.249Z,53.79
2023-05-01T11:39:19.696Z,53.70
2023-05-01T11:42:10.660Z,53.58
2023-05-01T11:44:39.859Z,53.43
2023-05-01T11:47:10.004Z,53.28
2023-05-01T11:49:38.563Z,52.82
2023-05-01T11:52:12.510Z,52.80
2023-05-01T11:55:07.068Z,52.70
2023-05-01T11:58:12.469Z,53.42
2023-05-01T12:01:05.968Z,53.37
2023-05-01T12:04:12.235Z,52.38
2023-05-01T12:07:06.679Z,52.83
2023-05-01T12:09:43.037Z,52.75
2023-05-01T12:12:11.614Z,52.63
2023-05-01T12:17:41.069Z,52.48
2023-05-01T12:20:16.724Z,52.16
2023-05-01T12:23:11.602Z,52.66
2023-05-01T12:25:41.699Z,52.29
2023-05-01T12:28:13.369Z,52.22
2023-05-01T12:30:43.218Z,52.34
2023-05-01T12:33:19.544Z,52.26
2023-05-01T12:50:23.351Z,52.57
2023-05-01T12:53:43.197Z,52.55
2023-05-01T12:56:43.570Z,52.55
2023-05-01T12:59:40.346Z,52.74
2023-05-01T13:02:17.008Z,53.12
2023-05-01T13:04:47.995Z,53.11
2023-05-01T13:25:38.355Z,53.82
2023-05-01T13:28:09.382Z,53.88
2023-05-01T13:30:40.909Z,53.89
2023-05-01T13:33:19.321Z,54.21
2023-05-01T13:35:47.779Z,53.94
2023-05-01T13:38:24.218Z,54.30
2023-05-01T13:40:52.721Z,55.18
2023-05-01T13:43:40.874Z,55.58
2023-05-01T13:46:09.192Z,55.59
2023-05-01T13:48:39.065Z,55.15
2023-05-01T13:51:07.596Z,55.56
2023-05-01T13:53:41.289Z,56.11
2023-05-01T13:56:12.341Z,56.24
2023-05-01T13:58:41.096Z,55.92
2023-05-01T14:01:32.686Z,55.33
2023-05-01T14:04:08.192Z,55.44
2023-05-01T14:06:46.494Z,55.35
2023-05-01T14:09:40.309Z,55.31
2023-05-01T14:12:08.915Z,54.53
2023-05-01T14:14:37.668Z,54.44
2023-05-01T14:17:06.897Z,54.13
2023-05-01T14:22:08.572Z,54.07
2023-05-01T14:24:42.544Z,54.23
2023-05-01T14:39:10.386Z,54.38
2023-05-01T14:41:43.202Z,54.48
2023-05-01T14:44:38.126Z,54.59
2023-05-01T14:47:16.205Z,55.02
2023-05-01T14:49:45.565Z,55.20
2023-05-01T14:52:24.889Z,55.22
2023-05-01T14:54:54.109Z,54.87
2023-05-01T14:57:40.268Z,55.19
2023-05-01T15:00:11.894Z,55.45
2023-05-01T15:02:40.419Z,55.29
2023-05-01T15:05:12.075Z,54.94
2023-05-01T15:07:40.557Z,54.89
2023-05-01T15:10:14.772Z,55.22
2023-05-01T15:12:43.230Z,54.95
2023-05-01T15:15:12.442Z,55.32
2023-05-01T15:17:40.789Z,55.25
2023-05-01T15:20:15.705Z,54.88
2023-05-01T15:22:44.101Z,55.05
2023-05-01T15:25:12.737Z,54.99
2023-05-01T15:27:41.264Z,55.24
2023-05-01T15:30:12.874Z,55.06
2023-05-01T15:32:41.899Z,55.22
2023-05-01T15:35:11.440Z,55.50
2023-05-01T15:37:45.878Z,55.62
2023-05-01T15:58:45.561Z,56.81
2023-05-01T16:01:49.938Z,56.91
2023-05-01T16:04:48.101Z,57.51
2023-05-01T16:07:42.814Z,57.07
2023-05-01T16:10:44.611Z,57.30
2023-05-01T16:16:52.405Z,58.09
2023-05-01T16:22:12.479Z,58.33
2023-05-01T16:24:46.684Z,58.18
2023-05-01T16:27:46.676Z,58.22
2023-05-01T16:30:16.030Z,58.45
2023-05-01T16:32:45.582Z,58.16
2023-05-01T16:35:37.583Z,58.27
2023-05-01T16:38:06.860Z,58.14
2023-05-01T16:40:38.118Z,58.01
2023-05-01T16:43:09.662Z,58.09
2023-05-01T16:45:44.392Z,58.21
2023-05-01T16:48:13.312Z,58.40
2023-05-01T16:50:43.161Z,58.62
2023-05-01T16:53:11.459Z,58.82
2023-05-01T16:55:42.515Z,58.71
2023-05-01T16:58:13.926Z,58.79
2023-05-01T17:00:43.619Z,58.56
2023-05-01T17:03:12.551Z,58.58
2023-05-01T17:05:40.861Z,58.44
2023-05-01T17:08:09.641Z,58.25
2023-05-01T17:10:41.486Z,58.03
2023-05-01T17:13:15.341Z,58.01
2023-05-01T17:15:44.170Z,57.91
2023-05-01T17:18:12.697Z,57.13
2023-05-01T17:20:43.407Z,56.76
2023-05-01T17:23:12.008Z,56.95
2023-05-01T17:25:42.985Z,56.93
2023-05-01T17:28:15.737Z,56.70
2023-05-01T17:30:44.202Z,56.40
2023-05-01T17:33:12.526Z,55.98
2023-05-01T17:35:45.850Z,55.82
2023-05-01T17:38:14.139Z,55.39
2023-05-01T17:40:45.883Z,55.50
2023-05-01T17:43:14.467Z,55.50
2023-05-01T17:45:44.644Z,55.27
2023-05-01T17:48:13.049Z,54.97
2023-05-01T17:53:21.295Z,55.35
2023-05-01T17:55:50.699Z,55.17
2023-05-01T17:58:18.988Z,55.30
2023-05-01T18:00:47.540Z,55.35
2023-05-01T18:03:15.971Z,55.38
2023-05-01T18:05:45.201Z,55.31
2023-05-01T18:08:13.993Z,55.12
2023-05-01T18:10:45.061Z,55.17
2023-05-01T18:13:14.918Z,55.52
2023-05-01T18:15:45.885Z,55.16
2023-05-01T18:18:14.711Z,55.03
2023-05-01T18:20:43.384Z,54.98
2023-05-01T18:23:12.008Z,54.93
2023-05-01T18:25:40.825Z,55.13
2023-05-01T18:28:09.209Z,55.12
2023-05-01T18:30:38.570Z,54.12
2023-05-01T18:33:09.708Z,53.91
2023-05-01T18:35:44.129Z,53.31
2023-05-01T18:38:12.555Z,53.74
2023-05-01T18:40:41.398Z,53.80
2023-05-01T18:43:11.224Z,54.10
2023-05-01T18:45:39.778Z,54.01
2023-05-01T18:48:11.292Z,53.73
2023-05-01T18:50:39.615Z,53.83
2023-05-01T18:53:08.000Z,54.05
2023-05-01T18:55:37.311Z,54.38
2023-05-01T18:58:24.556Z,54.16
2023-05-01T19:00:52.888Z,54.67
2023-05-01T19:03:21.935Z,54.87
2023-05-01T19:05:53.174Z,54.85
2023-05-01T19:08:21.358Z,54.94
2023-05-01T19:11:18.832Z,54.99
2023-05-01T19:14:16.214Z,55.02
2023-05-01T19:16:47.908Z,55.16
2023-05-01T19:19:16.676Z,55.47
2023-05-01T19:21:45.812Z,55.42
2023-05-01T19:24:16.715Z,55.18
2023-05-01T19:26:45.031Z,55.09
2023-05-01T19:29:16.090Z,54.53
2023-05-01T19:31:57.206Z,53.81
2023-05-01T19:34:27.798Z,53.45
2023-05-01T19:37:17.780Z,53.44
2023-05-01T19:46:17.957Z,52.82
2023-05-01T19:48:58.520Z,53.06
2023-05-01T19:51:35.580Z,53.03
2023-05-01T19:54:20.968Z,52.97
2023-05-01T19:59:39.884Z,53.14
2023-05-01T20:02:17.590Z,52.91
2023-05-01T20:04:46.341Z,53.04
2023-05-01T20:07:14.775Z,53.04
2023-05-01T20:09:43.721Z,53.29
2023-05-01T20:12:12.057Z,53.07
2023-05-01T20:14:40.299Z,53.02
2023-05-01T20:17:10.304Z,52.93
2023-05-01T20:19:40.051Z,52.81
2023-05-01T20:22:08.381Z,52.72
2023-05-01T20:24:36.596Z,52.66
2023-05-01T20:27:05.660Z,52.73
2023-05-01T20:29:34.139Z,52.46
2023-05-01T20:32:02.550Z,52.47
2023-05-01T20:34:30.893Z,52.38
2023-05-01T20:36:59.177Z,52.30
2023-05-01T20:39:27.613Z,52.19
2023-05-01T20:41:56.499Z,52.32
2023-05-01T20:44:25.424Z,52.47
2023-05-01T20:46:53.907Z,52.64
2023-05-01T20:49:22.469Z,52.62
2023-05-01T20:51:53.867Z,52.55
2023-05-01T20:54:22.378Z,52.62
2023-05-01T20:56:50.604Z,52.82
2023-05-01T20:59:19.401Z,52.64
2023-05-01T21:01:47.779Z,53.00
2023-05-01T21:04:16.209Z,52.71
2023-05-01T21:06:44.812Z,52.43
2023-05-01T21:09:15.808Z,52.63
2023-05-01T21:11:44.088Z,52.69
2023-05-01T21:14:12.759Z,52.74
2023-05-01T21:16:41.777Z,52.53
2023-05-01T21:19:13.160Z,52.31
2023-05-01T21:21:41.270Z,51.55
2023-05-01T21:24:13.212Z,51.20
2023-05-01T21:26:41.965Z,51.09
2023-05-01T21:29:11.368Z,51.15
2023-05-01T21:31:43.653Z,51.11
2023-05-01T21:34:12.269Z,51.33
2023-05-01T21:36:45.994Z,51.51
2023-05-01T21:39:15.048Z,51.95
2023-05-01T21:41:50.344Z,51.59
2023-05-01T21:44:19.026Z,51.41
2023-05-01T21:46:47.400Z,51.48
2023-05-01T21:49:23.169Z,51.69
2023-05-01T21:51:51.469Z,51.68
2023-05-01T21:54:21.749Z,51.21
2023-05-01T21:56:50.201Z,50.95
2023-05-01T21:59:19.544Z,51.32
2023-05-01T22:01:48.109Z,51.29
2023-05-01T22:04:19.389Z,51.48
2023-05-01T22:06:47.450Z,51.68
2023-05-01T22:09:18.801Z,51.96
2023-05-01T22:11:46.611Z,51.92
2023-05-01T22:14:15.099Z,52.03
2023-05-01T22:16:49.508Z,52.08
2023-05-01T22:19:21.092Z,51.66
2023-05-01T22:32:50.047Z,52.01
2023-05-01T22:36:26.258Z,52.33
2023-05-01T23:18:01.426Z,55.06
2023-05-01T23:41:19.826Z,55.33
2023-05-01T23:43:53.101Z,55.06
2023-05-01T23:46:22.190Z,54.97
2023-05-01T23:48:53.726Z,54.76
2023-05-01T23:51:22.366Z,54.41
2023-05-01T23:53:53.404Z,54.50
2023-05-01T23:56:21.710Z,54.37
2023-05-01T23:58:54.913Z,54.23
